createdAt,value
2016-10-07T11:26:28.176Z,5
2016-10-07T11:28:00.605Z,5
2016-10-07T11:29:10.389Z,5
2016-10-07T11:30:20.516Z,5
2016-10-07T11:31:29.942Z,5
2016-10-07T11:32:39.040Z,5
2016-10-07T11:33:48.760Z,5
2016-10-07T11:34:58.708Z,0
2016-10-07T11:36:08.521Z,5
2016-10-07T11:37:18.419Z,5
2016-10-07T11:38:27.976Z,5
2016-10-07T11:39:37.750Z,10
2016-10-07T11:40:47.762Z,10
2016-10-07T11:41:57.603Z,10
2016-10-07T11:43:07.317Z,15
2016-10-07T11:44:16.711Z,15
2016-10-07T11:45:26.080Z,15
2016-10-07T11:46:35.110Z,15
2016-10-07T11:47:44.577Z,5
2016-10-07T11:48:55.370Z,15
2016-10-07T11:50:05.117Z,15
2016-10-07T11:51:15.329Z,20
2016-10-07T11:52:25.001Z,20
2016-10-07T11:53:35.264Z,20
2016-10-07T11:54:46.003Z,20
2016-10-07T11:55:56.329Z,15
2016-10-07T11:57:06.170Z,20
2016-10-07T11:58:16.134Z,15
2016-10-07T11:59:27.648Z,15
2016-10-07T12:00:38.235Z,15
2016-10-07T12:01:47.773Z,20
2016-10-07T12:02:58.054Z,20
2016-10-07T12:04:08.291Z,20
2016-10-07T12:05:18.551Z,20
2016-10-07T12:06:29.408Z,20
2016-10-07T12:07:38.850Z,20
2016-10-07T12:08:50.479Z,20
2016-10-07T12:10:00.962Z,20
2016-10-07T12:11:11.261Z,20
2016-10-07T12:12:21.209Z,20
2016-10-07T12:13:31.302Z,20
2016-10-07T12:14:41.548Z,20
2016-10-07T12:15:52.730Z,15
2016-10-07T12:17:02.544Z,15
2016-10-07T12:18:12.477Z,15
2016-10-07T12:19:22.653Z,20
2016-10-07T12:20:32.536Z,20
2016-10-07T12:21:41.757Z,15
2016-10-07T12:22:52.548Z,15
2016-10-07T12:24:02.925Z,20
2016-10-07T12:25:12.946Z,20
2016-10-07T12:26:22.876Z,15
2016-10-07T12:27:32.044Z,15
2016-10-07T12:28:42.362Z,15
2016-10-07T12:29:52.921Z,15
2016-10-07T12:31:04.288Z,15
2016-10-07T12:32:14.905Z,15
2016-10-07T12:33:25.460Z,15
2016-10-07T12:34:36.145Z,15
2016-10-07T12:35:45.789Z,15
2016-10-07T12:36:56.159Z,15
2016-10-07T12:38:06.424Z,20
2016-10-07T12:39:17.082Z,30
2016-10-07T12:40:27.229Z,35
2016-10-07T12:41:38.283Z,35
2016-10-07T12:42:48.504Z,80
2016-10-07T12:43:58.877Z,105
2016-10-07T12:45:09.002Z,75
2016-10-07T12:46:20.435Z,55
2016-10-07T12:47:30.906Z,35
2016-10-07T12:48:46.234Z,30
2016-10-07T12:49:58.920Z,25
2016-10-07T12:51:11.475Z,25
2016-10-07T12:52:21.244Z,20
2016-10-07T12:53:30.905Z,20
2016-10-07T12:54:42.343Z,20
2016-10-07T12:55:54.263Z,15
2016-10-07T12:57:05.113Z,15
2016-10-07T12:58:15.796Z,15
2016-10-07T12:59:26.736Z,15
2016-10-07T13:00:37.369Z,10
